Latest Weather Observations for Esperance

IDW60801

Issued at 10:33 am WST Tuesday 22 September 2020 (issued every 10 minutes, with the page automatically refreshed every 10 minutes)

About weather observations | Map of weather stations | Latest weather observations for WA | Other Formats
Station Details ID: 009789 Name: ESPERANCE Lat: -33.83 Lon: 121.89 Height: 25.0 m
Data from the previous 72 hours. | See also: Recent months at Esperance
Date/Time
WST
Temp
°C
App
Temp
°C
Dew
Point
°C
Rel
Hum
%
Delta-T
°C
Wind Press
QNH
hPa
Press
MSL
hPa
Rain since
9am
mm
Dir  Spd
km/h
Gust
km/h
Spd
kts
Gust
kts
22/10:30am 16.7 12.0 7.6 55 4.6 WSW 22 39 12 21 1021.6 1021.6 0.0
22/10:00am 16.6 11.5 7.5 55 4.5 WSW 24 41 13 22 1021.7 1021.7 0.0
22/09:30am 15.4 11.0 9.1 66 3.2 SW 22 32 12 17 1021.8 1021.8 0.0
22/09:00am 15.4 11.0 7.2 58 4.0 W 20 32 11 17 1021.5 1021.5 1.6
22/08:30am 15.6 11.2 7.6 59 4.0 WSW 20 32 11 17 1021.2 1021.2 1.6
22/08:00am 14.5 10.4 8.0 65 3.2 WSW 19 28 10 15 1020.9 1020.9 1.6
22/07:30am 13.3 10.7 9.2 76 2.1 WNW 13 20 7 11 1020.4 1020.3 1.6
22/07:00am 11.7 7.6 8.7 82 1.5 WNW 20 28 11 15 1020.0 1019.9 1.6
22/06:30am 11.4 7.3 8.8 84 1.3 WNW 20 28 11 15 1019.6 1019.5 1.6
22/06:00am 10.7 7.2 8.6 87 1.0 WNW 17 24 9 13 1019.1 1019.0 1.6
22/05:30am 10.5 5.6 8.4 87 1.0 NW 24 35 13 19 1018.3 1018.2 1.6
22/05:00am 10.3 5.7 8.1 86 1.1 NW 22 32 12 17 1018.1 1018.0 1.6
22/04:30am 10.4 5.8 8.0 85 1.2 WNW 22 32 12 17 1017.9 1017.8 1.6
22/04:00am 10.4 6.2 7.6 83 1.3 WNW 19 30 10 16 1017.6 1017.5 1.6
22/03:30am 10.0 5.8 7.3 83 1.3 WNW 19 24 10 13 1017.7 1017.6 1.6
22/03:00am 9.7 5.8 7.0 83 1.3 NW 17 22 9 12 1017.7 1017.6 1.6
22/02:30am 9.8 5.6 7.6 86 1.1 NW 19 26 10 14 1017.7 1017.6 1.6
22/02:00am 9.3 5.0 7.7 90 0.8 NW 20 28 11 15 1017.7 1017.6 1.6
22/01:30am 9.2 5.1 7.8 91 0.7 NW 19 24 10 13 1018.0 1017.9 1.6
22/01:00am 9.3 5.6 8.1 92 0.6 NW 17 20 9 11 1018.1 1018.0 1.6
22/12:30am 9.5 7.0 8.4 93 0.5 NW 11 15 6 8 1018.3 1018.2 1.4
22/12:00am 9.8 8.2 8.7 93 0.5 NNW 7 11 4 6 1018.4 1018.3 1.4
 
Date/Time
WST
Temp
°C
App
Temp
°C
Dew
Point
°C
Rel
Hum
%
Delta-T
°C
Wind Press
QNH
hPa
Press
MSL
hPa
Rain since
9am
mm
Dir  Spd
km/h
Gust
km/h
Spd
kts
Gust
kts
21/11:30pm 10.6 8.4 9.5 93 0.6 NNW 11 15 6 8 1018.5 1018.4 1.4
21/11:00pm 10.6 8.7 9.2 91 0.7 NW 9 13 5 7 1018.8 1018.7 1.4
21/10:37pm 11.1 9.3 9.5 90 0.8 WNW 9 13 5 7 1019.0 1018.9 1.4
21/10:30pm 11.2 9.0 9.3 88 1.0 W 11 17 6 9 1019.2 1019.1 1.4
21/10:11pm 12.1 9.1 7.8 75 2.1 NW 13 30 7 16 1019.4 1019.3 0.6
21/10:00pm 12.7 9.7 7.8 72 2.4 NW 13 17 7 9 1019.2 1019.1 0.2
21/09:30pm 13.8 11.2 7.6 66 3.1 WSW 11 17 6 9 1019.5 1019.4 0.2
21/09:00pm 13.8 10.8 7.6 66 3.0 WSW 13 17 7 9 1019.4 1019.3 0.2
21/08:30pm 13.5 10.8 7.3 66 3.0 WSW 11 17 6 9 1019.6 1019.5 0.2
21/08:00pm 13.4 10.2 6.7 64 3.2 WSW 13 19 7 10 1019.6 1019.5 0.2
21/07:30pm 13.5 9.5 6.6 63 3.3 SW 17 28 9 15 1019.6 1019.5 0.2
21/07:00pm 13.4 10.7 7.2 66 3.0 WSW 11 20 6 11 1019.3 1019.2 0.2
21/06:30pm 13.0 10.2 7.0 67 2.9 SW 11 20 6 11 1019.0 1018.9 0.2
21/06:00pm 13.0 9.9 7.2 68 2.8 WSW 13 22 7 12 1018.9 1018.8 0.2
21/05:30pm 13.4 9.1 7.0 65 3.1 WSW 19 30 10 16 1018.8 1018.7 0.2
21/05:00pm 13.3 9.7 8.4 72 2.4 WSW 17 24 9 13 1018.6 1018.5 0.2
21/04:30pm 12.2 8.1 8.5 78 1.8 SW 20 35 11 19 1018.4 1018.3 0.2
21/04:00pm 14.1 9.5 6.7 61 3.6 WSW 20 35 11 19 1018.1 1018.0 0.2
21/03:30pm 14.8 9.4 6.4 57 4.1 WSW 24 37 13 20 1017.8 1017.7 0.2
21/03:00pm 14.8 8.4 5.3 53 4.5 WSW 28 44 15 24 1017.6 1017.5 0.2
21/02:52pm 15.0 8.6 5.2 52 4.6 WSW 28 46 15 25 1017.4 1017.3 0.2
21/02:30pm 15.0 8.6 5.0 51 4.7 WSW 28 41 15 22 1017.3 1017.2 0.2
21/02:00pm 15.4 10.3 6.2 54 4.4 SW 22 39 12 21 1017.1 1017.0 0.2
21/01:48pm 14.9 8.7 6.2 56 4.2 SW 28 48 15 26 1017.0 1016.9 0.2
21/01:30pm 16.0 10.9 7.7 58 4.2 WSW 24 41 13 22 1017.1 1017.0 0.2
21/01:00pm 14.5 10.2 7.8 64 3.3 WSW 20 32 11 17 1016.9 1016.8 0.0
21/12:30pm 14.9 9.6 7.0 59 3.9 SW 24 39 13 21 1016.8 1016.7 0.0
21/12:00pm 15.0 9.2 6.3 56 4.2 SW 26 44 14 24 1016.6 1016.5 0.0
21/11:34am 15.0 8.7 5.8 54 4.4 SW 28 46 15 25 1016.8 1016.7 0.0
21/11:30am 15.0 9.4 5.5 53 4.5 SW 24 46 13 25 1016.8 1016.7 0.0
21/11:00am 14.6 9.4 7.2 61 3.6 SW 24 41 13 22 1016.8 1016.7 0.0
21/10:42am 14.5 8.4 6.8 60 3.7 SW 28 46 15 25 1016.8 1016.7 0.0
21/10:30am 14.6 9.3 6.7 59 3.8 SW 24 43 13 23 1016.7 1016.6 0.0
21/10:00am 14.5 9.2 6.8 60 3.7 SW 24 41 13 22 1016.6 1016.5 0.0
21/09:37am 13.8 7.8 7.1 64 3.3 SW 28 52 15 28 1016.6 1016.5 0.0
21/09:30am 14.2 10.2 9.0 71 2.6 SW 20 37 11 20 1016.5 1016.4 0.0
21/09:00am 14.1 10.1 8.9 71 2.6 SW 20 33 11 18 1016.2 1016.1 16.2
21/08:30am 13.7 9.7 9.0 73 2.4 SW 20 33 11 18 1016.0 1015.9 16.0
21/08:00am 13.2 8.7 10.0 81 1.6 SW 24 35 13 19 1015.5 1015.4 16.0
21/07:30am 12.1 7.5 9.8 86 1.2 SW 24 39 13 21 1015.0 1015.0 16.0
21/07:00am 12.0 8.3 10.1 88 1.0 SW 20 30 11 16 1014.6 1014.6 16.0
21/06:30am 12.0 8.3 10.2 89 0.9 SW 20 35 11 19 1014.1 1014.1 15.8
21/06:00am 11.7 8.3 10.4 92 0.7 SW 19 30 10 16 1013.8 1013.8 15.8
21/05:59am 11.7 8.3 10.4 92 0.7 SW 19 30 10 16 1013.7 1013.7 15.8
21/05:35am 11.7 8.6 10.3 91 0.7 WSW 17 26 9 14 1013.6 1013.6 14.0
21/05:31am 11.6 8.1 10.2 91 0.7 WSW 19 35 10 19 1013.1 1013.1 13.2
21/05:30am 11.6 8.1 10.2 91 0.7 WSW 19 35 10 19 1013.1 1013.1 13.2
21/05:00am 11.8 7.2 9.5 86 1.2 WSW 24 41 13 22 1013.0 1013.0 11.6
21/04:51am 12.3 8.4 9.3 82 1.5 WSW 20 37 11 20 1013.0 1013.0 10.4
21/04:30am 12.6 9.3 9.4 81 1.6 SW 17 26 9 14 1012.7 1012.7 10.0
21/04:00am 12.7 8.5 8.4 75 2.1 W 20 35 11 19 1012.4 1012.4 9.8
21/03:30am 12.9 8.0 7.1 68 2.8 SW 22 35 12 19 1012.1 1012.1 9.8
21/03:00am 12.8 7.9 7.0 68 2.8 SW 22 35 12 19 1011.9 1011.9 9.8
21/02:30am 12.7 8.5 7.4 70 2.6 SW 19 30 10 16 1011.8 1011.8 9.8
21/02:00am 12.6 8.0 8.1 74 2.2 WSW 22 35 12 19 1011.7 1011.7 9.8
21/01:32am 11.8 5.9 7.7 76 2.0 SW 28 50 15 27 1011.7 1011.7 9.8
21/01:30am 12.0 6.5 7.7 75 2.1 SW 26 50 14 27 1011.7 1011.7 9.8
21/01:00am 13.2 7.4 6.3 63 3.3 SW 26 44 14 24 1011.5 1011.5 9.8
21/12:30am 12.5 7.1 8.2 75 2.1 SW 26 43 14 23 1011.5 1011.5 9.8
21/12:00am 12.2 7.4 8.7 79 1.7 WSW 24 39 13 21 1011.3 1011.3 9.8
 
Date/Time
WST
Temp
°C
App
Temp
°C
Dew
Point
°C
Rel
Hum
%
Delta-T
°C
Wind Press
QNH
hPa
Press
MSL
hPa
Rain since
9am
mm
Dir  Spd
km/h
Gust
km/h
Spd
kts
Gust
kts
20/11:53pm 12.4 7.6 8.7 78 1.8 WSW 24 41 13 22 1011.2 1011.2 9.8
20/11:35pm 12.1 6.5 8.6 79 1.7 WSW 28 56 15 30 1011.0 1011.0 9.6
20/11:33pm 12.1 7.1 8.2 77 1.9 WSW 24 44 13 24 1011.1 1011.1 9.2
20/11:30pm 12.8 7.4 8.1 73 2.3 WSW 26 43 14 23 1010.9 1010.9 9.0
20/11:00pm 13.3 7.1 8.0 70 2.6 WSW 30 46 16 25 1010.8 1010.8 8.8
20/10:30pm 13.5 7.7 7.9 69 2.8 WSW 28 50 15 27 1010.5 1010.5 8.8
20/10:13pm 13.5 7.9 8.8 73 2.4 WSW 28 50 15 27 1010.4 1010.4 8.8
20/10:00pm 13.3 8.1 9.0 75 2.2 WSW 26 41 14 22 1010.4 1010.4 8.8
20/09:30pm 13.1 7.2 9.2 77 2.0 WSW 30 46 16 25 1010.2 1010.2 8.8
20/09:21pm 12.9 7.6 9.7 81 1.6 WSW 28 48 15 26 1010.2 1010.2 8.8
20/09:00pm 12.4 7.1 9.8 84 1.3 WSW 28 43 15 23 1010.0 1010.0 8.8
20/08:59pm 12.4 7.1 9.8 84 1.3 WSW 28 43 15 23 1010.1 1010.1 8.6
20/08:30pm 12.4 6.9 10.6 89 0.9 WSW 30 48 16 26 1009.8 1009.8 8.2
20/08:16pm 12.1 6.3 10.8 92 0.7 WSW 32 52 17 28 1009.4 1009.4 7.8
20/08:14pm 12.1 7.1 11.0 93 0.6 WSW 28 52 15 28 1009.3 1009.3 7.8
20/08:10pm 12.5 8.9 11.7 95 0.4 W 22 52 12 28 1009.3 1009.3 7.6
20/08:00pm 11.5 7.6 10.9 96 0.3 WNW 22 35 12 19 1009.1 1009.1 7.6
20/07:41pm 11.7 7.5 11.1 96 0.3 W 24 37 13 20 1008.7 1008.7 7.6
20/07:40pm 12.0 7.9 11.4 96 0.3 W 24 37 13 20 1008.6 1008.6 7.6
20/07:30pm 11.3 7.0 10.7 96 0.3 W 24 39 13 21 1008.4 1008.4 7.6
20/07:12pm 10.7 4.0 9.8 94 0.5 WNW 35 57 19 31 1008.3 1008.3 5.2
20/07:09pm 10.8 4.2 9.9 94 0.5 WNW 35 57 19 31 1008.1 1008.1 4.8
20/07:02pm 10.9 5.6 10.0 94 0.5 WNW 28 48 15 26 1007.6 1007.6 4.4
20/07:00pm 10.8 5.5 9.7 93 0.6 WNW 28 43 15 23 1007.5 1007.5 4.4
20/06:50pm 10.8 4.7 9.7 93 0.6 WNW 32 46 17 25 1007.6 1007.6 4.2
20/06:34pm 10.7 4.8 9.1 90 0.8 WNW 30 48 16 26 1007.4 1007.4 4.0
20/06:30pm 10.7 5.2 9.1 90 0.8 W 28 43 15 23 1007.5 1007.5 3.8
20/06:00pm 11.3 4.6 8.3 82 1.5 WNW 33 52 18 28 1006.4 1006.4 1.0
20/05:51pm 11.3 3.7 7.6 78 1.8 WNW 37 65 20 35 1006.5 1006.5 0.6
20/05:30pm 12.0 3.9 6.9 71 2.4 WNW 39 63 21 34 1006.0 1006.0 0.4
20/05:00pm 13.9 4.2 5.8 58 3.9 WNW 46 89 25 48 1005.0 1005.0 0.2
20/04:51pm 14.5 5.0 5.0 53 4.5 W 44 89 24 48 1004.8 1004.8 0.2
20/04:30pm 14.6 5.7 4.9 52 4.5 WNW 41 70 22 38 1004.4 1004.4 0.2
20/04:00pm 14.1 5.6 5.2 55 4.2 WNW 39 67 21 36 1004.1 1004.1 0.2
20/03:30pm 15.0 5.1 4.7 50 4.8 WNW 46 76 25 41 1003.7 1003.7 0.0
20/03:16pm 13.9 3.9 4.5 53 4.3 WNW 46 83 25 45 1003.2 1003.2 0.0
20/03:00pm 13.9 5.7 5.0 55 4.2 WNW 37 56 20 30 1003.7 1003.7 0.0
20/02:49pm 13.6 5.0 4.7 55 4.1 WNW 39 63 21 34 1003.7 1003.7 0.0
20/02:35pm 12.5 3.1 5.2 61 3.4 WNW 44 72 24 39 1003.7 1003.7 0.0
20/02:30pm 13.0 3.9 4.2 55 4.0 WNW 41 72 22 39 1003.8 1003.8 0.0
20/02:00pm 15.5 4.7 2.0 40 6.0 WNW 48 70 26 38 1003.0 1003.0 0.0
20/01:30pm 15.4 4.8 2.9 43 5.6 WNW 48 74 26 40 1003.5 1003.5 0.0
20/01:00pm 15.8 5.8 2.2 40 6.1 WNW 44 67 24 36 1003.6 1003.6 0.0
20/12:30pm 15.2 5.9 2.7 43 5.6 WNW 41 63 22 34 1003.9 1003.9 0.0
20/12:00pm 14.8 5.2 3.3 46 5.2 WNW 43 65 23 35 1004.1 1004.1 0.0
20/11:30am 14.5 6.0 3.3 47 5.1 WNW 37 59 20 32 1004.3 1004.3 0.0
20/11:00am 15.3 7.1 4.7 49 5.0 WNW 37 57 20 31 1004.6 1004.6 0.0
20/10:30am 13.8 4.2 3.3 49 4.7 WNW 43 65 23 35 1004.5 1004.5 0.0
20/10:00am 12.4 3.5 3.1 53 4.1 WNW 39 61 21 33 1004.9 1004.9 0.0
20/09:30am 11.8 2.9 3.1 55 3.8 WNW 39 65 21 35 1005.0 1005.0 0.0
20/09:00am 11.1 1.5 3.2 58 3.5 WNW 43 74 23 40 1004.8 1004.8 4.4
20/08:30am 10.4 1.5 3.2 61 3.1 WNW 39 59 21 32 1005.0 1005.0 4.4
20/08:00am 10.4 1.6 3.7 63 3.0 WNW 39 61 21 33 1005.1 1005.1 4.4
20/07:30am 9.3 -0.1 2.6 63 2.8 WNW 41 63 22 34 1005.1 1005.1 4.4
20/07:00am 8.5 0.3 2.7 67 2.5 NW 35 56 19 30 1004.9 1004.9 4.4
20/06:57am 8.3 -0.3 2.5 67 2.4 NW 37 56 20 30 1004.9 1004.9 4.4
20/06:30am 7.7 -0.1 2.6 70 2.1 NW 33 46 18 25 1004.9 1004.9 4.4
20/06:15am 7.6 -0.3 2.5 70 2.1 NW 33 52 18 28 1004.7 1004.7 4.4
20/06:00am 7.4 -1.3 2.3 70 2.1 NW 37 50 20 27 1004.7 1004.7 4.4
20/05:35am 7.4 -0.2 2.7 72 2.0 NW 32 56 17 30 1004.8 1004.8 4.4
20/05:30am 7.4 -0.4 2.7 72 2.0 NW 33 44 18 24 1004.9 1004.9 4.4
20/05:05am 7.5 -0.3 3.0 73 1.9 NW 33 52 18 28 1004.6 1004.6 4.4
20/05:00am 7.4 -0.4 2.9 73 1.9 NW 33 50 18 27 1004.7 1004.7 4.4
20/04:30am 7.6 0.1 3.3 74 1.8 WNW 32 50 17 27 1004.5 1004.5 4.4
20/04:23am 7.6 0.5 3.3 74 1.8 WNW 30 50 16 27 1004.5 1004.5 4.4
20/04:00am 7.7 0.2 3.6 75 1.8 NW 32 43 17 23 1004.5 1004.5 4.4
20/03:30am 7.7 0.6 3.7 76 1.7 NW 30 44 16 24 1004.5 1004.5 4.4
20/03:00am 8.0 0.9 3.7 74 1.9 WNW 30 50 16 27 1004.5 1004.5 4.4
20/02:53am 8.0 1.3 3.7 74 1.8 WNW 28 50 15 27 1004.5 1004.5 4.4
20/02:30am 8.3 0.9 3.9 74 1.9 NW 32 44 17 24 1004.3 1004.3 4.4
20/02:00am 8.5 1.5 3.9 73 2.0 NW 30 44 16 24 1004.4 1004.4 4.4
20/01:30am 8.6 1.0 3.8 72 2.1 NW 33 44 18 24 1004.6 1004.6 4.4
20/01:00am 8.9 1.9 4.1 72 2.1 NW 30 41 16 22 1004.7 1004.7 4.4
20/12:30am 9.4 2.8 4.4 71 2.2 NW 28 39 15 21 1004.8 1004.8 4.4
20/12:00am 9.6 3.6 5.2 74 2.0 NW 26 37 14 20 1005.0 1005.0 4.4
 
Date/Time
WST
Temp
°C
App
Temp
°C
Dew
Point
°C
Rel
Hum
%
Delta-T
°C
Wind Press
QNH
hPa
Press
MSL
hPa
Rain since
9am
mm
Dir  Spd
km/h
Gust
km/h
Spd
kts
Gust
kts
19/11:30pm 9.9 4.7 5.5 74 2.0 NW 22 32 12 17 1005.0 1005.0 4.4
19/11:00pm 10.5 4.5 5.3 70 2.4 WNW 26 35 14 19 1005.2 1005.2 4.4
19/10:30pm 10.8 4.0 5.1 68 2.6 WNW 30 44 16 24 1005.3 1005.3 4.4
19/10:00pm 11.3 5.3 5.4 67 2.7 WNW 26 39 14 21 1005.4 1005.4 4.4
19/09:30pm 11.6 5.8 6.1 69 2.6 WNW 26 41 14 22 1005.3 1005.3 4.4
19/09:00pm 11.9 7.1 7.4 74 2.2 WNW 22 33 12 18 1005.4 1005.4 4.4
19/08:30pm 12.1 7.4 7.8 75 2.1 WNW 22 33 12 18 1005.2 1005.2 4.4
19/08:00pm 12.0 8.7 9.4 84 1.3 WNW 17 22 9 12 1005.0 1005.0 4.4
19/07:52pm 12.1 8.3 8.9 81 1.6 W 19 26 10 14 1005.1 1005.1 4.0
19/07:34pm 13.0 9.1 9.4 79 1.8 WNW 20 32 11 17 1005.3 1005.3 4.0
19/07:30pm 13.3 9.6 9.4 77 2.0 W 19 28 10 15 1005.3 1005.3 3.4
19/07:00pm 13.9 9.4 8.5 70 2.7 SW 22 41 12 22 1004.7 1004.7 3.2
19/06:30pm 14.8 12.7 9.6 71 2.7 WSW 11 20 6 11 1003.9 1003.9 3.2
19/06:00pm 14.9 12.7 9.5 70 2.8 WSW 11 15 6 8 1003.5 1003.5 3.2
19/05:30pm 15.7 13.7 10.0 69 3.0 WSW 11 15 6 8 1003.0 1003.0 3.2
19/05:00pm 15.7 12.6 10.2 70 2.9 SW 17 30 9 16 1002.6 1002.6 3.2
19/04:30pm 16.1 13.0 10.4 69 3.0 WSW 17 26 9 14 1002.5 1002.5 3.2
19/04:00pm 16.9 13.8 11.6 71 2.9 WSW 19 28 10 15 1002.3 1002.3 3.2
19/03:30pm 16.5 14.2 13.0 80 2.0 WSW 17 26 9 14 1002.0 1002.0 3.2
19/03:00pm 14.9 12.6 12.9 88 1.1 WSW 17 26 9 14 1002.2 1002.2 3.0
19/02:59pm 14.9 12.6 12.9 88 1.1 SW 17 26 9 14 1002.1 1002.1 3.0
19/02:40pm 15.2 11.4 12.3 83 1.6 SW 24 35 13 19 1001.8 1001.8 2.8
19/02:30pm 16.3 13.5 12.5 78 2.1 WSW 19 35 10 19 1001.6 1001.6 2.4
19/02:00pm 16.5 15.3 15.0 91 0.9 W 15 28 8 15 1001.7 1001.7 2.4
19/01:55pm 17.0 16.6 16.2 95 0.5 W 13 20 7 11 1001.6 1001.6 2.4
19/01:30pm 15.3 12.5 13.3 88 1.1 W 20 33 11 18 1002.0 1002.0 1.8
19/01:18pm 15.9 12.0 12.1 78 2.1 WSW 24 50 13 27 1002.3 1002.3 0.4
19/01:13pm 17.0 12.1 11.3 69 3.1 WSW 28 50 15 27 1001.9 1001.9 0.0
19/01:00pm 18.8 14.4 10.4 58 4.5 WSW 24 43 13 23 1001.3 1001.3 0.0
19/12:30pm 21.5 16.2 7.0 39 7.4 WSW 24 37 13 20 1001.1 1001.1 0.0
19/12:00pm 22.7 18.9 7.7 38 7.9 WSW 17 26 9 14 1001.2 1001.2 0.0
19/11:30am 22.3 17.1 5.7 34 8.3 WNW 22 35 12 19 1001.5 1001.5 0.0
19/11:00am 22.4 16.9 7.4 38 7.8 NW 26 37 14 20 1001.9 1001.9 0.0

Other formats

Comma delimited format used in spreadsheet applications
http://www.bom.gov.au/fwo/IDW60801/IDW60801.94638.axf

JavaScript Object Notation format (JSON) in row-major order
http://www.bom.gov.au/fwo/IDW60801/IDW60801.94638.json

Data quality

Most of these data are generated automatically and are frequently updated. Quality checks on data are not normally performed. It is possible for incorrect values to appear. Refer to information at About Latest Weather Observations and please check the disclaimer before using these data.